createdAt,value
2018-11-14T00:00:57.157Z,100.05
2018-11-14T00:04:02.028Z,100.17
2018-11-14T00:07:06.804Z,100.00
2018-11-14T00:10:30.469Z,99.92
2018-11-14T00:13:46.853Z,99.94
2018-11-14T00:16:51.618Z,99.89
2018-11-14T00:20:15.338Z,100.17
2018-11-14T00:23:38.971Z,100.17
2018-11-14T00:26:54.869Z,100.03
2018-11-14T00:30:11.032Z,99.92
2018-11-14T00:33:29.847Z,99.64
2018-11-14T00:36:45.631Z,99.40
2018-11-14T00:40:02.264Z,99.51
2018-11-14T00:43:07.332Z,99.42
2018-11-14T00:46:30.972Z,99.33
2018-11-14T00:49:47.414Z,99.24
2018-11-14T00:52:52.217Z,99.17
2018-11-14T00:56:15.959Z,99.41
2018-11-14T00:59:39.672Z,99.56
2018-11-14T01:02:56.107Z,99.92
2018-11-14T01:06:00.913Z,100.04
2018-11-14T01:09:24.511Z,100.40
2018-11-14T01:12:40.758Z,100.67
2018-11-14T01:15:56.991Z,100.93
2018-11-14T01:19:01.762Z,100.82
2018-11-14T01:22:25.463Z,101.20
2018-11-14T01:25:41.933Z,101.25
2018-11-14T01:28:46.748Z,100.98
2018-11-14T01:32:10.444Z,100.98
2018-11-14T01:35:34.122Z,100.82
2018-11-14T01:38:57.774Z,101.01
2018-11-14T01:42:02.683Z,100.92
2018-11-14T01:45:28.354Z,101.04
2018-11-14T01:48:52.037Z,101.12
2018-11-14T01:52:08.413Z,101.34
2018-11-14T01:55:24.882Z,101.16
2018-11-14T01:58:29.771Z,101.07
2018-11-14T02:01:34.735Z,101.13
2018-11-14T02:04:58.407Z,101.11
2018-11-14T02:08:22.085Z,100.82
2018-11-14T02:11:37.896Z,100.41
2018-11-14T02:14:43.043Z,100.08
2018-11-14T02:18:06.757Z,99.82
2018-11-14T02:21:30.472Z,99.50
2018-11-14T02:24:46.741Z,99.33
2018-11-14T02:28:02.663Z,99.42
2018-11-14T02:31:18.857Z,99.42
2018-11-14T02:34:34.888Z,99.15
2018-11-14T02:37:40.542Z,99.12
2018-11-14T02:41:04.201Z,98.71
2018-11-14T02:44:20.397Z,99.02
2018-11-14T02:47:39.462Z,99.09
2018-11-14T02:51:02.903Z,99.42
2018-11-14T02:54:26.709Z,99.88
2018-11-14T02:57:31.520Z,99.87
2018-11-14T03:00:55.212Z,100.01
2018-11-14T03:04:18.889Z,99.83
2018-11-14T03:07:34.704Z,99.66
2018-11-14T03:10:50.343Z,99.80
2018-11-14T03:14:06.479Z,99.81
2018-11-14T03:17:11.236Z,99.65
2018-11-14T03:20:34.928Z,99.77
2018-11-14T03:23:58.906Z,99.56
2018-11-14T03:27:15.499Z,99.59
2018-11-14T03:30:31.417Z,99.94
2018-11-14T03:33:47.290Z,100.46
2018-11-14T03:37:02.859Z,100.39
2018-11-14T03:40:19.442Z,100.41
2018-11-14T03:43:35.591Z,100.33
2018-11-14T03:46:40.634Z,100.00
2018-11-14T03:50:04.384Z,100.11
2018-11-14T03:53:28.076Z,99.72
2018-11-14T03:56:44.193Z,99.43
2018-11-14T04:00:00.698Z,99.42
2018-11-14T04:03:05.476Z,99.50
2018-11-14T04:06:29.237Z,99.53
2018-11-14T04:09:53.221Z,100.05
2018-11-14T04:13:09.818Z,100.22
2018-11-14T04:16:25.497Z,100.12
2018-11-14T04:19:41.498Z,100.29
2018-11-14T04:22:46.892Z,100.40
2018-11-14T04:25:51.743Z,100.05
2018-11-14T04:29:15.440Z,100.08
2018-11-14T04:32:20.466Z,100.07
2018-11-14T04:35:44.136Z,100.22
2018-11-14T04:39:09.449Z,100.11
2018-11-14T04:42:33.127Z,100.03
2018-11-14T04:45:49.248Z,100.43
2018-11-14T04:48:54.238Z,100.59
2018-11-14T04:52:17.980Z,100.82
2018-11-14T04:55:34.468Z,100.94
2018-11-14T04:58:50.498Z,101.13
2018-11-14T05:02:06.836Z,101.33
2018-11-14T05:05:16.653Z,101.26
2018-11-14T05:08:40.339Z,101.61
2018-11-14T05:12:03.962Z,101.40
2018-11-14T05:15:21.727Z,101.45
2018-11-14T05:21:54.201Z,101.84
2018-11-14T05:25:10.147Z,101.58
2018-11-14T05:31:36.342Z,101.59
2018-11-14T05:35:00.009Z,101.61
2018-11-14T05:38:05.396Z,101.68
2018-11-14T05:41:10.141Z,101.59
2018-11-14T05:44:33.826Z,101.59
2018-11-14T05:47:38.888Z,101.64
2018-11-14T05:51:02.724Z,101.57
2018-11-14T05:54:26.398Z,101.85
2018-11-14T05:57:31.333Z,101.87
2018-11-14T06:00:55.013Z,101.78
2018-11-14T06:03:59.898Z,101.96
2018-11-14T06:07:05.417Z,102.03
2018-11-14T06:10:29.218Z,102.07
2018-11-14T06:13:52.899Z,102.50
2018-11-14T06:17:09.073Z,102.17
2018-11-14T06:20:24.645Z,102.20
2018-11-14T06:23:29.487Z,102.30
2018-11-14T06:26:53.143Z,102.35
2018-11-14T06:30:16.807Z,102.53
2018-11-14T06:33:32.417Z,102.60
2018-11-14T06:36:49.551Z,102.46
2018-11-14T06:39:54.388Z,102.30
2018-11-14T06:43:18.053Z,102.22
2018-11-14T06:46:41.716Z,102.23
2018-11-14T06:49:57.391Z,101.78
2018-11-14T06:53:03.622Z,101.50
2018-11-14T06:56:27.368Z,101.43
2018-11-14T06:59:51.396Z,101.17
2018-11-14T07:02:56.837Z,101.23
2018-11-14T07:06:20.488Z,101.52
2018-11-14T07:09:36.205Z,101.62
2018-11-14T07:12:52.588Z,101.49
2018-11-14T07:16:09.014Z,101.52
2018-11-14T07:19:13.886Z,101.62
2018-11-14T07:22:37.529Z,101.63
2018-11-14T07:25:53.601Z,101.59
2018-11-14T07:29:09.908Z,101.77
2018-11-14T07:32:14.810Z,101.75
2018-11-14T07:35:19.795Z,101.77
2018-11-14T07:39:02.049Z,101.71
2018-11-14T07:42:25.696Z,101.49
2018-11-14T07:45:30.557Z,101.47
2018-11-14T07:48:35.761Z,101.32
2018-11-14T07:51:59.485Z,101.14
2018-11-14T07:55:04.385Z,100.46
2018-11-14T07:58:09.239Z,99.96
2018-11-14T08:01:32.934Z,100.33
2018-11-14T08:04:49.526Z,100.36
2018-11-14T08:08:05.591Z,100.34
2018-11-14T08:11:21.673Z,100.20
2018-11-14T08:14:38.034Z,100.08
2018-11-14T08:17:53.878Z,99.79
2018-11-14T08:21:10.268Z,99.52
2018-11-14T08:24:26.692Z,99.26
2018-11-14T08:27:42.568Z,98.38
2018-11-14T08:30:47.634Z,98.98
2018-11-14T08:34:11.617Z,98.82
2018-11-14T08:37:35.237Z,98.66
2018-11-14T08:40:51.634Z,98.70
2018-11-14T08:44:07.909Z,98.18
2018-11-14T08:47:12.747Z,96.96
2018-11-14T08:50:17.671Z,95.54
2018-11-14T08:53:41.288Z,95.18
2018-11-14T08:56:57.312Z,94.99
2018-11-14T09:00:02.210Z,93.85
2018-11-14T09:03:25.887Z,93.44
2018-11-14T09:06:42.088Z,93.09
2018-11-14T09:09:58.004Z,92.65
2018-11-14T09:13:18.002Z,92.85
2018-11-14T09:16:33.765Z,92.79
2018-11-14T09:19:50.196Z,93.10
2018-11-14T09:23:06.015Z,93.01
2018-11-14T09:26:22.396Z,92.11
2018-11-14T09:29:38.878Z,92.45
2018-11-14T09:32:43.683Z,91.86
2018-11-14T09:36:07.357Z,92.04
2018-11-14T09:39:31.373Z,91.48
2018-11-14T09:42:47.874Z,90.94
2018-11-14T09:46:03.993Z,91.23
2018-11-14T09:49:09.024Z,90.34
2018-11-14T09:52:32.652Z,90.29
2018-11-14T09:55:49.237Z,89.36
2018-11-14T09:59:05.023Z,88.60
2018-11-14T10:02:21.047Z,87.68
2018-11-14T10:05:37.123Z,87.72
2018-11-14T10:08:52.730Z,87.27
2018-11-14T10:12:09.084Z,87.04
2018-11-14T10:15:25.670Z,86.87
2018-11-14T10:18:30.530Z,86.53
2018-11-14T10:21:35.903Z,87.41
2018-11-14T10:24:59.677Z,87.07
2018-11-14T10:28:23.362Z,87.69
2018-11-14T10:31:28.850Z,87.50
2018-11-14T10:34:52.429Z,87.21
2018-11-14T10:38:16.113Z,86.53
2018-11-14T10:41:21.739Z,85.79
2018-11-14T10:44:45.407Z,85.98
2018-11-14T10:48:09.094Z,86.14
2018-11-14T10:51:13.911Z,84.37
2018-11-14T10:54:18.702Z,84.49
2018-11-14T11:01:31.072Z,84.61
2018-11-14T11:04:54.452Z,85.62
2018-11-14T11:08:30.628Z,85.32
2018-11-14T11:11:54.546Z,84.56
2018-11-14T11:15:36.806Z,84.72
2018-11-14T11:18:52.765Z,83.95
2018-11-14T11:21:57.693Z,84.08
2018-11-14T11:25:21.358Z,84.34
2018-11-14T11:28:37.566Z,84.99
2018-11-14T11:31:42.374Z,83.73
2018-11-14T11:35:06.414Z,84.16
2018-11-14T11:38:11.426Z,83.80
2018-11-14T11:41:16.194Z,83.21
2018-11-14T11:44:21.931Z,83.00
2018-11-14T11:47:45.591Z,82.52
2018-11-14T11:51:01.462Z,82.26
2018-11-14T11:54:19.309Z,82.11
2018-11-14T11:57:35.502Z,80.86
2018-11-14T12:00:52.120Z,80.86
2018-11-14T12:04:08.649Z,79.06
2018-11-14T12:07:24.453Z,80.04
2018-11-14T12:10:29.307Z,80.28
2018-11-14T12:13:53.042Z,80.29
2018-11-14T12:16:57.854Z,79.46
2018-11-14T12:20:02.595Z,79.97
2018-11-14T12:23:26.333Z,79.70
2018-11-14T12:26:42.425Z,79.13
2018-11-14T12:29:58.349Z,78.43
2018-11-14T12:33:14.846Z,79.04
2018-11-14T12:36:30.843Z,78.31
2018-11-14T12:39:36.313Z,76.49
2018-11-14T12:42:41.258Z,74.33
2018-11-14T12:46:04.922Z,75.12
2018-11-14T12:49:09.663Z,75.26
2018-11-14T12:52:14.508Z,76.21
2018-11-14T12:55:38.273Z,75.93
2018-11-14T12:58:54.488Z,81.37
2018-11-14T13:02:10.578Z,78.04
2018-11-14T13:05:26.519Z,78.20
2018-11-14T13:08:43.215Z,79.09
2018-11-14T13:12:06.957Z,75.93
2018-11-14T13:15:30.617Z,75.47
2018-11-14T13:18:46.554Z,76.89
2018-11-14T13:25:19.655Z,74.35
2018-11-14T13:28:35.919Z,75.26
2018-11-14T13:31:40.693Z,74.94
2018-11-14T13:35:04.377Z,77.77
2018-11-14T13:38:20.670Z,75.48
2018-11-14T13:41:25.499Z,76.63
2018-11-14T13:44:49.433Z,77.00
2018-11-14T13:48:13.100Z,75.04
2018-11-14T13:51:18.195Z,76.60
2018-11-14T13:54:41.733Z,77.11
2018-11-14T13:58:05.444Z,77.20
2018-11-14T14:01:10.350Z,75.97
2018-11-14T14:04:15.504Z,75.58
2018-11-14T14:07:39.206Z,76.21
2018-11-14T14:11:02.989Z,75.15
2018-11-14T14:14:19.497Z,75.54
2018-11-14T14:17:35.583Z,77.30
2018-11-14T14:20:51.798Z,80.61
2018-11-14T14:24:07.586Z,80.86
2018-11-14T14:27:23.904Z,82.34
2018-11-14T14:30:40.418Z,82.21
2018-11-14T14:33:56.885Z,82.56
2018-11-14T14:37:12.814Z,82.82
2018-11-14T14:40:28.863Z,85.20
2018-11-14T14:43:33.745Z,83.70
2018-11-14T14:46:57.419Z,84.67
2018-11-14T14:50:02.288Z,84.06
2018-11-14T14:53:26.075Z,82.65
2018-11-14T14:56:42.608Z,82.83
2018-11-14T14:59:47.456Z,82.62
2018-11-14T15:03:11.131Z,82.76
2018-11-14T15:06:34.893Z,83.39
2018-11-14T15:09:39.837Z,85.27
2018-11-14T15:13:03.487Z,84.25
2018-11-14T15:16:27.218Z,84.88
2018-11-14T15:19:43.633Z,85.85
2018-11-14T15:23:00.462Z,85.56
2018-11-14T15:26:05.279Z,86.88
2018-11-14T15:29:10.092Z,88.10
2018-11-14T15:32:14.930Z,89.33
2018-11-14T15:35:38.594Z,88.71
2018-11-14T15:39:02.323Z,89.19
2018-11-14T15:42:18.478Z,89.98
2018-11-14T15:45:35.013Z,91.26
2018-11-14T15:48:39.913Z,91.21
2018-11-14T15:51:44.904Z,90.39
2018-11-14T15:55:09.986Z,90.45
2018-11-14T15:58:33.660Z,90.66
2018-11-14T16:01:52.373Z,90.49
2018-11-14T16:04:57.183Z,90.46
2018-11-14T16:08:20.947Z,90.78
2018-11-14T16:11:25.773Z,91.48
2018-11-14T16:14:49.820Z,92.32
2018-11-14T16:18:06.353Z,93.14
2018-11-14T16:21:22.328Z,93.06
2018-11-14T16:24:38.361Z,93.35
2018-11-14T16:27:55.696Z,93.63
2018-11-14T16:31:12.267Z,93.99
2018-11-14T16:34:17.185Z,93.81
2018-11-14T16:37:22.935Z,94.75
2018-11-14T16:40:46.733Z,94.41
2018-11-14T16:44:10.687Z,94.95
2018-11-14T16:47:15.637Z,95.73
2018-11-14T16:50:39.355Z,96.09
2018-11-14T16:53:55.487Z,95.94
2018-11-14T16:57:11.731Z,96.13
2018-11-14T17:00:28.803Z,95.80
2018-11-14T17:03:44.765Z,95.62
2018-11-14T17:07:01.180Z,95.33
2018-11-14T17:10:21.324Z,95.25
2018-11-14T17:13:37.257Z,94.73
2018-11-14T17:16:53.626Z,94.95
2018-11-14T17:20:10.097Z,95.70
2018-11-14T17:23:26.265Z,95.99
2018-11-14T17:26:42.072Z,95.66
2018-11-14T17:29:58.433Z,95.85
2018-11-14T17:33:14.978Z,95.60
2018-11-14T17:36:19.762Z,95.84
2018-11-14T17:39:50.974Z,96.33
2018-11-14T17:43:07.014Z,96.47
2018-11-14T17:46:22.757Z,96.38
2018-11-14T17:49:38.722Z,96.40
2018-11-14T17:52:55.283Z,97.24
2018-11-14T17:56:00.348Z,97.26
2018-11-14T17:59:24.043Z,97.46
2018-11-14T18:02:28.916Z,97.52
2018-11-14T18:05:44.647Z,97.30
2018-11-14T18:09:00.705Z,97.45
2018-11-14T18:12:16.767Z,97.58
2018-11-14T18:15:33.061Z,97.38
2018-11-14T18:18:49.067Z,96.76
2018-11-14T18:22:04.919Z,96.20
2018-11-14T18:25:10.205Z,96.18
2018-11-14T18:28:33.928Z,96.23
2018-11-14T18:31:57.659Z,96.34
2018-11-14T18:35:18.724Z,96.58
2018-11-14T18:38:35.444Z,96.38
2018-11-14T18:41:52.078Z,96.39
2018-11-14T18:45:08.374Z,96.16
2018-11-14T18:48:13.318Z,96.18
2018-11-14T18:51:18.137Z,96.12
2018-11-14T18:54:23.507Z,96.02
2018-11-14T18:57:47.337Z,95.65
2018-11-14T19:00:52.123Z,95.28
2018-11-14T19:04:15.822Z,95.59
2018-11-14T19:07:32.745Z,95.82
2018-11-14T19:10:37.708Z,95.66
2018-11-14T19:14:01.478Z,95.85
2018-11-14T19:17:17.836Z,95.89
2018-11-14T19:20:42.199Z,95.83
2018-11-14T19:24:06.109Z,95.97
2018-11-14T19:27:10.967Z,96.02
2018-11-14T19:30:34.471Z,96.17
2018-11-14T19:33:58.194Z,95.86
2018-11-14T19:37:14.736Z,95.96
2018-11-14T19:40:38.517Z,96.25
2018-11-14T19:44:02.167Z,96.08
2018-11-14T19:47:07.927Z,96.10
2018-11-14T19:50:31.649Z,95.97
2018-11-14T19:53:36.600Z,95.57
2018-11-14T19:57:00.336Z,95.62
2018-11-14T20:00:06.022Z,94.69
2018-11-14T20:03:29.853Z,94.41
2018-11-14T20:06:53.574Z,94.40
2018-11-14T20:10:10.575Z,94.27
2018-11-14T20:13:25.704Z,94.13
2018-11-14T20:16:42.174Z,93.75
2018-11-14T20:19:47.025Z,94.10
2018-11-14T20:23:10.773Z,93.86
2018-11-14T20:26:34.515Z,93.93
2018-11-14T20:29:39.545Z,93.84
2018-11-14T20:33:04.961Z,93.86
2018-11-14T20:36:09.749Z,94.09
2018-11-14T20:39:33.499Z,94.61
2018-11-14T20:42:38.786Z,94.44
2018-11-14T20:46:02.492Z,94.40
2018-11-14T20:49:07.815Z,94.80
2018-11-14T20:52:31.399Z,94.62
2018-11-14T20:55:36.867Z,94.55
2018-11-14T20:59:00.528Z,94.97
2018-11-14T21:02:24.316Z,95.56
2018-11-14T21:05:40.093Z,95.28
2018-11-14T21:08:56.399Z,94.91
2018-11-14T21:12:12.967Z,94.59
2018-11-14T21:15:30.794Z,94.62
2018-11-14T21:18:47.198Z,94.90
2018-11-14T21:22:03.447Z,94.92
2018-11-14T21:25:09.847Z,95.37
2018-11-14T21:28:35.965Z,94.62
2018-11-14T21:31:59.788Z,94.32
2018-11-14T21:35:25.127Z,94.76
2018-11-14T21:38:30.025Z,94.88
2018-11-14T21:41:55.872Z,95.21
2018-11-14T21:45:23.416Z,94.20
2018-11-14T21:48:39.956Z,93.76
2018-11-14T21:51:44.803Z,94.33
2018-11-14T21:54:49.637Z,93.82
2018-11-14T21:58:13.324Z,94.07
2018-11-14T22:01:37.137Z,93.90
2018-11-14T22:04:53.462Z,94.10
2018-11-14T22:08:09.507Z,94.19
2018-11-14T22:11:14.353Z,94.49
2018-11-14T22:14:38.107Z,94.93
2018-11-14T22:17:54.548Z,94.73
2018-11-14T22:20:59.384Z,94.63
2018-11-14T22:24:22.813Z,94.55
2018-11-14T22:27:46.571Z,95.22
2018-11-14T22:30:51.356Z,95.73
2018-11-14T22:33:56.253Z,95.59
2018-11-14T22:37:01.077Z,95.30
2018-11-14T22:40:25.967Z,95.56
2018-11-14T22:43:49.646Z,95.57
2018-11-14T22:47:05.733Z,95.66
2018-11-14T22:50:23.251Z,96.08
2018-11-14T22:53:38.870Z,96.12
2018-11-14T22:56:43.656Z,96.25
2018-11-14T23:00:44.751Z,96.91
2018-11-14T23:03:49.568Z,97.01
2018-11-14T23:07:13.264Z,97.40
2018-11-14T23:10:37.000Z,96.54
2018-11-14T23:13:53.330Z,96.34
2018-11-14T23:17:09.234Z,96.63
2018-11-14T23:20:25.736Z,96.67
2018-11-14T23:23:30.499Z,96.65
2018-11-14T23:26:54.241Z,96.93
2018-11-14T23:30:10.776Z,97.31
2018-11-14T23:33:26.991Z,96.93
2018-11-14T23:36:43.137Z,95.35
2018-11-14T23:39:48.033Z,95.86
2018-11-14T23:42:52.800Z,96.57
2018-11-14T23:46:16.500Z,96.57
2018-11-14T23:49:40.188Z,95.70
2018-11-14T23:52:57.511Z,95.87
2018-11-14T23:56:13.270Z,96.41
2018-11-14T23:59:29.594Z,96.73
